M I D A S
Marine Information and Data Acquisition System
Tripno 885 of the Zeeleeuw from 2005-04-22 07:21:10 to 2005-04-22 12:43:49
Back to CruiseResearch ActivitiesStationsMapUnderway DataData graphs

EquipmentUnitsComments
TimeDGPSUTC
LatitudeDGPSDM.mWGS84
LongitudeDGPSDM.mWGS84
SpeedMeteo Stationm/sRelative wind speed
DirectionMeteo StationdegRelative wind direction
TemperatureMeteo Stationdeg CelciusAir temperature
PressureMeteo StationPaAtmospheric pressure
HumidityMeteo Station%Relative humidity
Missing or incorrect values are displayed as -999
Metereological data collected by the RV Zeeleeuw from 2005-04-22 07:20:42 to 2005-04-22 12:55:07
Time Latitude Longitude Speed Direction Temperature Pressure Humidity
2005-04-22 07:21 51°13.611 2°56.037 1.4 61 9.1 101650 59
2005-04-22 07:22 51°13.648 2°55.915 0.4 6 9.1 101650 60
2005-04-22 07:23 51°13.687 2°55.8 0.8 14 9.1 101660 60
2005-04-22 07:24 51°13.698 2°55.765 3 88 9.2 101650 59
2005-04-22 07:25 51°13.7 2°55.743 2.7 88 9.1 101660 61
2005-04-22 07:26 51°13.773 2°55.684 1.7 38 9.2 101650 60
2005-04-22 07:27 51°13.888 2°55.586 2.3 16 9.2 101660 59
2005-04-22 07:28 51°14.017 2°55.492 2.5 46 9.2 101660 60
2005-04-22 07:29 51°14.142 2°55.404 2 62 9.1 101660 59
2005-04-22 07:30 51°14.264 2°55.257 2.2 23 9 101650 59
2005-04-22 07:31 51°14.369 2°55.045 2.2 17 9 101660 60
2005-04-22 07:32 51°14.472 2°54.758 3.9 351 8.9 101650 60
2005-04-22 07:33 51°14.476 2°54.396 4.5 326 9 101640 61
2005-04-22 07:34 51°14.402 2°54.038 5.7 329 9.1 101640 59
2005-04-22 07:35 51°14.279 2°53.709 7.4 333 9.2 101640 59
2005-04-22 07:36 51°14.158 2°53.372 6.1 324 9.3 101630 56
2005-04-22 07:37 51°14.041 2°53.031 6.9 328 9.4 101630 56
2005-04-22 07:38 51°13.927 2°52.679 8 327 9.5 101630 54
2005-04-22 07:39 51°13.816 2°52.33 7.4 330 9.6 101630 52
2005-04-22 07:40 51°13.706 2°51.984 7.5 330 9.7 101630 54
2005-04-22 07:41 51°13.588 2°51.636 7 322 9.7 101630 54
2005-04-22 07:42 51°13.463 2°51.303 7.9 333 9.7 101630 55
2005-04-22 07:43 51°13.333 2°50.97 8.4 329 9.7 101630 55
2005-04-22 07:44 51°13.203 2°50.636 8.2 322 9.7 101630 55
2005-04-22 07:45 51°13.071 2°50.308 8.5 328 9.6 101630 57
2005-04-22 07:46 51°12.936 2°49.974 7.4 329 9.6 101620 55
2005-04-22 07:47 51°12.806 2°49.643 7 326 9.5 101630 55
2005-04-22 07:48 51°12.672 2°49.309 6.9 332 9.5 101630 57
2005-04-22 07:49 51°12.541 2°48.98 7.7 326 9.4 101630 59
2005-04-22 07:50 51°12.408 2°48.646 7.7 332 9.4 101630 58
2005-04-22 07:51 51°12.279 2°48.319 8.3 332 9.4 101640 58
2005-04-22 07:52 51°12.149 2°47.989 8.7 331 9.4 101630 57
2005-04-22 07:53 51°12.018 2°47.657 7.6 330 9.4 101630 56
2005-04-22 07:54 51°11.889 2°47.332 7.9 333 9.4 101630 59
2005-04-22 07:55 51°11.766 2°46.996 7.9 337 9.4 101640 57
2005-04-22 07:56 51°11.651 2°46.656 7.1 342 9.4 101630 59
2005-04-22 07:57 51°11.549 2°46.304 7.4 340 9.4 101630 60
2005-04-22 07:58 51°11.451 2°45.949 7.2 332 9.3 101640 58
2005-04-22 07:59 51°11.353 2°45.593 6.9 338 9.3 101640 60
2005-04-22 08:00 51°11.256 2°45.24 6.9 336 9.3 101640 59
2005-04-22 08:01 51°11.157 2°44.884 7.4 342 9.3 101640 62
2005-04-22 08:02 51°11.061 2°44.53 6.7 339 9.4 101640 61
2005-04-22 08:03 51°10.963 2°44.18 6.9 340 9.4 101640 61
2005-04-22 08:04 51°10.866 2°43.834 6.4 341 9.4 101630 59
2005-04-22 08:05 51°10.771 2°43.49 7.9 335 9.4 101640 60
2005-04-22 08:06 51°10.674 2°43.143 7 339 9.4 101630 60
2005-04-22 08:07 51°10.576 2°42.796 7.9 341 9.4 101640 61
2005-04-22 08:08 51°10.478 2°42.447 7.4 344 9.5 101630 61
2005-04-22 08:09 51°10.388 2°42.099 6.7 341 9.5 101630 61
2005-04-22 08:10 51°10.31 2°41.733 6.6 340 9.5 101630 61
2005-04-22 08:11 51°10.231 2°41.375 6 339 9.5 101630 60
2005-04-22 08:12 51°10.153 2°41.008 6.3 342 9.4 101630 60
2005-04-22 08:13 51°10.073 2°40.647 6.8 339 9.5 101620 60
2005-04-22 08:14 51°9.994 2°40.29 6.3 341 9.5 101620 59
2005-04-22 08:15 51°9.908 2°39.933 6.3 340 9.5 101620 57
2005-04-22 08:16 51°9.82 2°39.577 6.9 338 9.5 101620 57
2005-04-22 08:17 51°9.733 2°39.22 6.7 340 9.5 101620 58
2005-04-22 08:18 51°9.643 2°38.866 6.7 339 9.5 101620 59
2005-04-22 08:19 51°9.55 2°38.514 6.8 347 9.5 101620 58
2005-04-22 08:20 51°9.459 2°38.162 6 345 9.5 101610 60
2005-04-22 08:21 51°9.369 2°37.812 6.2 347 9.5 101610 59
2005-04-22 08:22 51°9.277 2°37.464 5.1 349 9.5 101610 60
2005-04-22 08:23 51°9.255 2°37.246 0.4 332 9.5 101620 59
2005-04-22 08:24 51°9.28 2°37.171 2.3 128 9.7 101620 59
2005-04-22 08:25 51°9.277 2°37.155 2.6 136 9.7 101610 59
2005-04-22 08:26 51°9.272 2°37.143 2.2 145 9.7 101610 58
2005-04-22 08:27 51°9.267 2°37.132 2.4 146 9.6 101620 59
2005-04-22 08:28 51°9.263 2°37.12 2 148 9.5 101610 58
2005-04-22 08:29 51°9.259 2°37.108 2 147 9.5 101610 58
2005-04-22 08:30 51°9.255 2°37.096 2.6 147 9.5 101610 59
2005-04-22 08:31 51°9.25 2°37.084 2.4 146 9.5 101610 62
2005-04-22 08:32 51°9.246 2°37.073 2.4 151 9.5 101610 62
2005-04-22 08:33 51°9.242 2°37.062 2.1 151 9.5 101610 60
2005-04-22 08:34 51°9.238 2°37.052 1.7 150 9.5 101610 59
2005-04-22 08:35 51°9.234 2°37.043 1.8 156 9.5 101610 60
2005-04-22 08:36 51°9.231 2°37.036 2 159 9.5 101610 60
2005-04-22 08:37 51°9.226 2°37.027 1.7 154 9.6 101610 60
2005-04-22 08:38 51°9.222 2°37.02 1.9 153 9.6 101610 61
2005-04-22 08:39 51°9.219 2°37.012 2.1 161 9.7 101610 59
2005-04-22 08:40 51°9.216 2°37.005 1.5 170 9.6 101610 60
2005-04-22 08:41 51°9.222 2°36.981 1.4 152 9.6 101610 59
2005-04-22 08:42 51°9.247 2°36.951 1.6 110 9.7 101610 60
2005-04-22 08:43 51°9.284 2°36.935 2.1 85 9.8 101610 60
2005-04-22 08:44 51°9.325 2°36.942 2.4 65 9.8 101610 59
2005-04-22 08:45 51°9.363 2°36.974 3.3 45 9.6 101610 62
2005-04-22 08:46 51°9.39 2°37.029 3.4 32 9.5 101600 60
2005-04-22 08:47 51°9.4 2°37.098 3.6 14 9.5 101600 61
2005-04-22 08:48 51°9.389 2°37.167 3.1 358 9.7 101600 59
2005-04-22 08:49 51°9.359 2°37.222 3 339 9.8 101600 59
2005-04-22 08:50 51°9.314 2°37.249 2.6 227 10 101600 59
2005-04-22 08:51 51°9.268 2°37.243 2.4 292 10.2 101600 59
2005-04-22 08:52 51°9.235 2°37.223 2.7 271 10.4 101600 59
2005-04-22 08:53 51°9.211 2°37.199 1.8 259 10.5 101610 58
2005-04-22 08:54 51°9.193 2°37.17 2 243 10.5 101610 57
2005-04-22 08:55 51°9.185 2°37.136 1.4 230 10.5 101610 57
2005-04-22 08:56 51°9.186 2°37.103 1 168 10.4 101610 57
2005-04-22 08:57 51°9.196 2°37.076 1.7 146 10.4 101610 57
2005-04-22 08:58 51°9.211 2°37.059 2 129 10.4 101610 58
2005-04-22 08:59 51°9.231 2°37.05 2.5 114 10.3 101600 58
2005-04-22 09:00 51°9.252 2°37.05 2.5 95 10.4 101600 58
2005-04-22 09:01 51°9.276 2°37.062 2.5 78 10.4 101600 62
2005-04-22 09:02 51°9.295 2°37.08 3.1 67 10.2 101610 58
2005-04-22 09:03 51°9.31 2°37.098 2.8 65 10 101600 58
2005-04-22 09:04 51°9.323 2°37.115 2.4 65 9.9 101600 57
2005-04-22 09:05 51°9.331 2°37.131 2.1 59 9.9 101600 58
2005-04-22 09:06 51°9.34 2°37.149 1.9 55 9.9 101600 61
2005-04-22 09:07 51°9.346 2°37.165 2.5 53 9.9 101600 62
2005-04-22 09:08 51°9.353 2°37.18 2.6 49 9.9 101610 61
2005-04-22 09:09 51°9.359 2°37.194 2.1 47 9.9 101600 60
2005-04-22 09:10 51°9.364 2°37.208 2 30 9.9 101600 60
2005-04-22 09:11 51°9.369 2°37.222 2.6 31 9.9 101590 62
2005-04-22 09:12 51°9.373 2°37.235 2.9 40 10 101590 60
2005-04-22 09:13 51°9.378 2°37.249 2.7 38 10 101590 59
2005-04-22 09:14 51°9.381 2°37.261 2.7 41 9.9 101590 59
2005-04-22 09:15 51°9.387 2°37.272 2.7 57 9.9 101590 62
2005-04-22 09:16 51°9.391 2°37.283 3.1 62 9.9 101590 63
2005-04-22 09:17 51°9.397 2°37.295 3.1 69 9.9 101590 63
2005-04-22 09:18 51°9.403 2°37.307 3.3 80 9.9 101580 61
2005-04-22 09:19 51°9.408 2°37.32 3.9 92 9.9 101580 62
2005-04-22 09:20 51°9.414 2°37.334 3.3 99 10 101580 60
2005-04-22 09:21 51°9.419 2°37.347 3.3 105 10.1 101580 59
2005-04-22 09:22 51°9.426 2°37.363 3 109 10.2 101580 60
2005-04-22 09:23 51°9.431 2°37.378 3.1 113 10.3 101580 57
2005-04-22 09:24 51°9.437 2°37.394 2.2 119 10.4 101570 58
2005-04-22 09:25 51°9.444 2°37.41 2.9 122 10.5 101580 58
2005-04-22 09:26 51°9.451 2°37.427 2.8 125 10.5 101570 58
2005-04-22 09:27 51°9.457 2°37.444 3 123 10.6 101580 59
2005-04-22 09:28 51°9.464 2°37.463 2.7 121 10.7 101570 57
2005-04-22 09:29 51°9.471 2°37.481 3.4 118 10.7 101580 57
2005-04-22 09:30 51°9.479 2°37.5 3.2 114 10.8 101570 56
2005-04-22 09:31 51°9.486 2°37.519 2.9 117 10.8 101570 58
2005-04-22 09:32 51°9.494 2°37.539 2.4 111 10.9 101570 60
2005-04-22 09:33 51°9.533 2°37.535 3.4 81 10.9 101570 61
2005-04-22 09:34 51°9.584 2°37.475 3.5 87 10.7 101560 65
2005-04-22 09:35 51°9.622 2°37.416 2.7 118 10.5 101560 63
2005-04-22 09:36 51°9.65 2°37.35 2.7 110 10.5 101560 63
2005-04-22 09:37 51°9.687 2°37.281 2.9 102 10.6 101560 63
2005-04-22 09:38 51°9.737 2°37.237 2.6 66 10.5 101560 64
2005-04-22 09:39 51°9.803 2°37.271 5.3 29 10.3 101550 62
2005-04-22 09:40 51°9.863 2°37.365 4.8 351 10.3 101550 62
2005-04-22 09:41 51°9.862 2°37.488 4.2 305 10.4 101550 63
2005-04-22 09:42 51°9.814 2°37.523 2 247 10.5 101550 63
2005-04-22 09:43 51°9.767 2°37.479 1.2 194 10.6 101550 61
2005-04-22 09:44 51°9.723 2°37.407 0.5 158 10.7 101550 61
2005-04-22 09:45 51°9.69 2°37.344 1.5 166 11 101550 61
2005-04-22 09:46 51°9.671 2°37.295 1.7 160 11.1 101550 60
2005-04-22 09:47 51°9.652 2°37.248 1.7 161 10.9 101550 61
2005-04-22 09:48 51°9.63 2°37.196 1.7 154 10.8 101550 62
2005-04-22 09:49 51°9.607 2°37.141 1.7 150 10.7 101550 63
2005-04-22 09:50 51°9.582 2°37.086 2.1 143 10.6 101550 62
2005-04-22 09:51 51°9.558 2°37.033 1.7 146 10.6 101550 64
2005-04-22 09:52 51°9.533 2°36.981 2 141 10.5 101550 64
2005-04-22 09:53 51°9.511 2°36.927 2.3 134 10.5 101540 66
2005-04-22 09:54 51°9.492 2°36.872 1.9 147 10.4 101540 65
2005-04-22 09:55 51°9.471 2°36.82 2.3 157 10.3 101540 65
2005-04-22 09:56 51°9.448 2°36.771 2.1 161 10.3 101540 65
2005-04-22 09:57 51°9.426 2°36.723 2.3 159 10.2 101540 65
2005-04-22 09:58 51°9.404 2°36.676 1.9 154 10.2 101540 67
2005-04-22 09:59 51°9.383 2°36.627 1.9 155 10.2 101540 67
2005-04-22 10:00 51°9.362 2°36.576 2 157 10.2 101530 68
2005-04-22 10:01 51°9.341 2°36.525 2.1 153 10.1 101530 68
2005-04-22 10:02 51°9.324 2°36.471 2.1 150 10.1 101530 68
2005-04-22 10:03 51°9.309 2°36.416 1.9 148 10.1 101530 67
2005-04-22 10:04 51°9.293 2°36.361 1.8 148 10.1 101530 68
2005-04-22 10:05 51°9.276 2°36.308 1.5 149 10.2 101530 68
2005-04-22 10:06 51°9.259 2°36.254 1.4 143 10.2 101530 68
2005-04-22 10:07 51°9.242 2°36.199 1.3 140 10.3 101530 68
2005-04-22 10:08 51°9.224 2°36.145 1.2 135 10.4 101530 69
2005-04-22 10:09 51°9.206 2°36.091 1.2 137 10.5 101530 69
2005-04-22 10:10 51°9.187 2°36.038 1.5 137 10.5 101530 68
2005-04-22 10:11 51°9.168 2°35.983 1.7 140 10.5 101520 69
2005-04-22 10:12 51°9.15 2°35.928 1.7 140 10.6 101530 68
2005-04-22 10:13 51°9.131 2°35.873 1.7 139 10.6 101520 68
2005-04-22 10:14 51°9.111 2°35.82 1.8 141 10.6 101520 69
2005-04-22 10:15 51°9.091 2°35.768 1.4 139 10.6 101520 69
2005-04-22 10:16 51°9.072 2°35.715 2.2 137 10.6 101520 69
2005-04-22 10:17 51°9.054 2°35.661 2.3 142 10.6 101520 69
2005-04-22 10:18 51°9.037 2°35.611 2.2 159 10.6 101520 68
2005-04-22 10:19 51°9.025 2°35.563 2.6 129 10.5 101520 66
2005-04-22 10:20 51°9.025 2°35.509 2.9 117 10.5 101520 67
2005-04-22 10:21 51°9.033 2°35.471 3.4 117 10.5 101520 69
2005-04-22 10:22 51°9.048 2°35.451 3.4 114 10.5 101520 68
2005-04-22 10:23 51°9.065 2°35.445 3.6 112 10.4 101520 68
2005-04-22 10:24 51°9.082 2°35.447 3.7 110 10.4 101520 68
2005-04-22 10:25 51°9.098 2°35.456 3.5 110 10.4 101510 69
2005-04-22 10:26 51°9.123 2°35.438 3.9 80 10.4 101510 69
2005-04-22 10:27 51°9.196 2°35.415 5.6 24 10.2 101500 69
2005-04-22 10:28 51°9.261 2°35.543 6.7 345 10.2 101510 68
2005-04-22 10:29 51°9.248 2°35.709 4 299 10.3 101500 66
2005-04-22 10:30 51°9.175 2°35.758 1.5 243 10.5 101510 66
2005-04-22 10:31 51°9.12 2°35.736 1.9 219 10.5 101510 64
2005-04-22 10:32 51°9.082 2°35.699 0.9 195 10.7 101510 63
2005-04-22 10:33 51°9.052 2°35.652 1.8 158 10.8 101510 63
2005-04-22 10:34 51°9.029 2°35.603 1.8 158 10.9 101510 64
2005-04-22 10:35 51°9.003 2°35.555 1.9 152 10.9 101510 65
2005-04-22 10:36 51°8.978 2°35.505 2.6 157 10.8 101510 65
2005-04-22 10:37 51°8.953 2°35.453 2.3 140 10.7 101500 64
2005-04-22 10:38 51°8.929 2°35.402 2.6 130 10.7 101510 65
2005-04-22 10:39 51°8.91 2°35.347 3.4 129 10.7 101500 67
2005-04-22 10:40 51°8.891 2°35.294 2.8 129 10.7 101500 68
2005-04-22 10:41 51°8.872 2°35.241 2.9 142 10.7 101500 69
2005-04-22 10:42 51°8.856 2°35.187 3.5 138 10.6 101500 67
2005-04-22 10:43 51°8.843 2°35.131 3.4 131 10.6 101500 68
2005-04-22 10:44 51°8.83 2°35.074 3.6 133 10.5 101500 67
2005-04-22 10:45 51°8.817 2°35.016 3.2 127 10.6 101500 69
2005-04-22 10:46 51°8.803 2°34.958 2.9 124 10.5 101500 70
2005-04-22 10:47 51°8.79 2°34.899 3.4 126 10.5 101500 70
2005-04-22 10:48 51°8.777 2°34.841 1.6 128 10.5 101500 70
2005-04-22 10:49 51°8.765 2°34.781 3.5 133 10.4 101500 71
2005-04-22 10:50 51°8.751 2°34.722 3.6 124 10.3 101490 70
2005-04-22 10:51 51°8.738 2°34.662 3.5 137 10.3 101490 71
2005-04-22 10:52 51°8.718 2°34.609 3 141 10.2 101490 71
2005-04-22 10:53 51°8.695 2°34.56 2.8 138 10.3 101500 70
2005-04-22 10:54 51°8.672 2°34.508 2.7 135 10.3 101500 70
2005-04-22 10:55 51°8.65 2°34.454 3.7 134 10.3 101490 71
2005-04-22 10:56 51°8.629 2°34.4 3.2 130 10.3 101490 71
2005-04-22 10:57 51°8.611 2°34.344 3.4 132 10.3 101490 72
2005-04-22 10:58 51°8.594 2°34.289 3.3 133 10.3 101490 73
2005-04-22 10:59 51°8.577 2°34.231 3.4 226 10.2 101490 73
2005-04-22 11:00 51°8.563 2°34.169 4 131 10.2 101490 73
2005-04-22 11:01 51°8.563 2°34.124 4.4 120 10.2 101490 74
2005-04-22 11:02 51°8.575 2°34.095 4.3 113 10.1 101490 74
2005-04-22 11:03 51°8.593 2°34.079 5.1 106 10.1 101480 75
2005-04-22 11:04 51°8.615 2°34.075 5.5 101 10.1 101490 75
2005-04-22 11:05 51°8.636 2°34.047 3.8 133 10.1 101480 75
2005-04-22 11:06 51°8.613 2°34.032 3.1 228 10.1 101490 76
2005-04-22 11:07 51°8.582 2°34.107 4.7 307 10.2 101480 77
2005-04-22 11:08 51°8.594 2°34.216 5.9 329 10.3 101470 76
2005-04-22 11:09 51°8.627 2°34.308 6.2 346 10.4 101470 75
2005-04-22 11:10 51°8.664 2°34.395 6.8 345 10.5 101470 74
2005-04-22 11:11 51°8.708 2°34.504 7.2 347 10.6 101470 73
2005-04-22 11:12 51°8.755 2°34.62 7.1 346 10.6 101470 72
2005-04-22 11:13 51°8.794 2°34.724 6.4 342 10.7 101470 72
2005-04-22 11:14 51°8.824 2°34.809 5.9 337 10.7 101470 72
2005-04-22 11:15 51°8.847 2°34.881 5.2 343 10.8 101460 71
2005-04-22 11:16 51°8.867 2°34.945 4.7 340 10.8 101470 71
2005-04-22 11:17 51°8.886 2°35.004 4.8 334 10.8 101470 71
2005-04-22 11:18 51°8.904 2°35.061 5.2 338 10.8 101470 70
2005-04-22 11:19 51°8.922 2°35.123 5.1 336 10.8 101470 70
2005-04-22 11:20 51°8.942 2°35.189 4.2 337 10.8 101460 70
2005-04-22 11:21 51°8.964 2°35.258 5.7 346 10.8 101470 70
2005-04-22 11:22 51°8.986 2°35.328 6.5 341 10.8 101460 70
2005-04-22 11:23 51°9.006 2°35.398 6.5 338 10.8 101450 70
2005-04-22 11:24 51°9.025 2°35.467 6.7 340 10.8 101460 70
2005-04-22 11:25 51°9.043 2°35.533 6.6 338 10.8 101460 70
2005-04-22 11:26 51°9.06 2°35.599 5.8 345 10.8 101460 69
2005-04-22 11:27 51°9.077 2°35.667 6.3 336 10.8 101460 70
2005-04-22 11:28 51°9.094 2°35.73 5.8 342 11 101460 71
2005-04-22 11:29 51°9.11 2°35.791 5.7 333 10.8 101460 70
2005-04-22 11:30 51°9.126 2°35.852 5.7 338 10.8 101450 70
2005-04-22 11:31 51°9.143 2°35.912 5.9 343 10.8 101460 71
2005-04-22 11:32 51°9.16 2°35.973 6.8 343 10.8 101450 71
2005-04-22 11:33 51°9.176 2°36.033 5.6 350 10.8 101450 70
2005-04-22 11:34 51°9.193 2°36.093 6.6 341 10.8 101450 70
2005-04-22 11:35 51°9.211 2°36.156 6.4 346 10.8 101450 71
2005-04-22 11:36 51°9.23 2°36.22 5.1 347 10.8 101450 70
2005-04-22 11:37 51°9.249 2°36.285 7 343 10.9 101450 71
2005-04-22 11:38 51°9.268 2°36.349 6.9 344 10.9 101450 71
2005-04-22 11:39 51°9.286 2°36.414 6.2 345 10.8 101440 71
2005-04-22 11:40 51°9.305 2°36.477 6.2 345 10.8 101450 71
2005-04-22 11:41 51°9.322 2°36.54 6.7 343 10.8 101450 71
2005-04-22 11:42 51°9.345 2°36.61 6.9 344 10.8 101440 71
2005-04-22 11:43 51°9.375 2°36.706 7.6 342 10.8 101440 71
2005-04-22 11:44 51°9.403 2°36.824 7.8 336 10.8 101430 71
2005-04-22 11:45 51°9.425 2°36.957 7.9 328 10.7 101440 72
2005-04-22 11:46 51°9.442 2°37.093 7 329 10.7 101430 72
2005-04-22 11:47 51°9.458 2°37.199 7.2 332 10.6 101440 72
2005-04-22 11:48 51°9.474 2°37.286 7 330 10.6 101440 72
2005-04-22 11:49 51°9.488 2°37.366 6.6 325 10.6 101440 72
2005-04-22 11:50 51°9.532 2°37.554 9.8 353 10.6 101430 72
2005-04-22 11:51 51°9.627 2°37.818 11.2 353 10.7 101430 73
2005-04-22 11:52 51°9.714 2°38.105 11.5 353 10.7 101430 73
2005-04-22 11:53 51°9.796 2°38.39 11.7 349 10.8 101420 72
2005-04-22 11:54 51°9.877 2°38.678 11.4 350 10.8 101420 72
2005-04-22 11:55 51°9.953 2°38.972 11 348 10.8 101420 73
2005-04-22 11:56 51°10.023 2°39.27 10.9 349 10.8 101420 72
2005-04-22 11:57 51°10.092 2°39.568 11.5 347 10.8 101430 73
2005-04-22 11:58 51°10.145 2°39.796 7.7 354 10.8 101420 73
2005-04-22 11:59 51°10.192 2°39.92 7.8 354 10.8 101430 73
2005-04-22 12:00 51°10.242 2°40.068 11.2 349 10.8 101430 73
2005-04-22 12:01 51°10.335 2°40.401 12.8 353 10.8 101420 73
2005-04-22 12:02 51°10.432 2°40.754 11.7 353 10.8 101410 73
2005-04-22 12:03 51°10.528 2°41.112 13.3 353 10.8 101420 73
2005-04-22 12:04 51°10.622 2°41.469 11.7 355 10.8 101410 73
2005-04-22 12:05 51°10.702 2°41.84 12 351 10.9 101420 72
2005-04-22 12:06 51°10.781 2°42.203 12 352 10.9 101420 70
2005-04-22 12:07 51°10.861 2°42.573 12.1 349 11 101410 70
2005-04-22 12:08 51°10.941 2°42.94 11.6 351 11 101410 71
2005-04-22 12:09 51°11.017 2°43.312 12.2 353 11 101410 71
2005-04-22 12:10 51°11.093 2°43.681 12.3 348 11.1 101410 70
2005-04-22 12:11 51°11.17 2°44.05 8.7 2 11.1 101410 68
2005-04-22 12:12 51°11.246 2°44.421 11.2 352 11.3 101410 62
2005-04-22 12:13 51°11.323 2°44.788 10.9 353 11.5 101400 66
2005-04-22 12:14 51°11.399 2°45.152 10.8 353 11.5 101420 67
2005-04-22 12:15 51°11.484 2°45.51 10.5 360 11.5 101420 66
2005-04-22 12:16 51°11.579 2°45.851 11.7 351 11.4 101420 65
2005-04-22 12:17 51°11.679 2°46.201 9.5 351 11.4 101410 66
2005-04-22 12:18 51°11.779 2°46.551 10.3 357 11.3 101410 67
2005-04-22 12:19 51°11.881 2°46.91 9.8 354 11.4 101410 63
2005-04-22 12:20 51°11.982 2°47.266 9.7 356 11.6 101410 62
2005-04-22 12:21 51°12.078 2°47.625 9.3 6 11.8 101410 59
2005-04-22 12:22 51°12.173 2°47.984 9.2 23 12 101420 56
2005-04-22 12:23 51°12.291 2°48.323 8.8 25 12.6 101400 47
2005-04-22 12:24 51°12.415 2°48.666 9.5 359 13 101410 51
2005-04-22 12:25 51°12.538 2°49.005 9.6 355 12.8 101410 57
2005-04-22 12:26 51°12.656 2°49.343 9.5 357 12.5 101410 59
2005-04-22 12:27 51°12.777 2°49.684 10.9 352 12.2 101410 58
2005-04-22 12:28 51°12.899 2°50.028 7.5 10 12 101410 62
2005-04-22 12:29 51°13.02 2°50.374 9.3 12 12.2 101400 54
2005-04-22 12:30 51°13.139 2°50.713 8.8 360 12.6 101410 57
2005-04-22 12:31 51°13.258 2°51.05 8.5 359 12.7 101410 53
2005-04-22 12:32 51°13.38 2°51.394 8.8 26 12.5 101410 55
2005-04-22 12:33 51°13.504 2°51.74 8.3 19 12.8 101410 56
2005-04-22 12:34 51°13.63 2°52.088 7.3 23 12.9 101400 46
2005-04-22 12:35 51°13.754 2°52.428 10.2 22 13.5 101410 43
2005-04-22 12:36 51°13.885 2°52.769 8.3 19 13.8 101400 43
2005-04-22 12:37 51°14.015 2°53.105 9 18 14 101410 41
2005-04-22 12:38 51°14.146 2°53.442 9.5 357 13.8 101430 49
2005-04-22 12:39 51°14.275 2°53.775 6.9 15 13.4 101410 52
2005-04-22 12:40 51°14.382 2°54.116 7.4 13 13.3 101420 45
2005-04-22 12:41 51°14.42 2°54.456 8.2 17 13.7 101400 40
2005-04-22 12:42 51°14.402 2°54.798 7.5 30 14.1 101410 37
2005-04-22 12:43 51°14.341 2°55.08 8.4 13 14.3 101400 36
2005-04-22 12:44 51°14.254 2°55.284 7.7 16 14.5 101400 36
2005-04-22 12:45 51°14.14 2°55.413 6.7 16 14.7 101410 36
2005-04-22 12:46 51°14.016 2°55.503 8.6 351 14.8 101400 37
2005-04-22 12:47 51°13.899 2°55.584 10 3 15 101400 37
2005-04-22 12:48 51°13.793 2°55.668 6.3 8 15 101400 37
2005-04-22 12:49 51°13.737 2°55.76 5.8 16 15 101400 37
2005-04-22 12:50 51°13.696 2°55.848 5.2 11 15.1 101400 34
2005-04-22 12:51 51°13.647 2°55.948 4.9 21 15.1 101400 34
2005-04-22 12:52 51°13.62 2°56.027 3.9 24 15.1 101400 35
2005-04-22 12:53 51°13.607 2°56.08 1.9 25 15.1 101410 34
2005-04-22 12:54 51°13.599 2°56.107 1.8 87 15 101400 34